Time;durP1;ratioP1;P1;durP2;ratioP2;P2;SDS_P1;SDS_P2;PMS_P1;PMS_P2;Temp;Humidity;BMP_temperature;BMP_pressure;BME280_temperature;BME280_humidity;BME280_pressure;Samples;Min_cycle;Max_cycle;Signal;HPM_P1;HPM_P2
2023/12/27 11:16:25;;;;;;;4.40;1.40;;;;;;;6.33;72.35;100758.11;110280;264;40034;-56
2023/12/27 11:19:01;;;;;;;4.40;1.60;;;;;;;6.23;72.43;100763.95;111310;256;152448;-56
2023/12/27 11:21:35;;;;;;;8.10;2.20;;;;;;;6.07;72.33;100767.19;112068;253;41055;-58
2023/12/27 11:24:10;;;;;;;6.10;2.10;;;;;;;5.99;72.82;100771.94;111735;252;158859;-58
2023/12/27 11:26:45;;;;;;;8.70;2.20;;;;;;;5.94;72.81;100775.83;112109;251;39841;-59
2023/12/27 11:29:20;;;;;;;6.70;2.20;;;;;;;5.86;72.99;100774.27;112149;251;40033;-58
2023/12/27 11:31:56;;;;;;;7.20;2.00;;;;;;;5.83;72.96;100774.57;111887;253;42465;-58
2023/12/27 11:34:33;;;;;;;6.10;2.20;;;;;;;5.81;72.94;100773.61;112164;253;39436;-58
2023/12/27 11:37:08;;;;;;;6.00;2.30;;;;;;;5.80;72.79;100768.61;111964;250;152853;-58
2023/12/27 11:39:47;;;;;;;5.80;2.00;;;;;;;5.74;72.57;100769.20;112127;252;39325;-56
2023/12/27 11:42:23;;;;;;;5.10;2.00;;;;;;;5.74;72.80;100776.34;112068;250;153284;-58
2023/12/27 11:44:57;;;;;;;6.50;2.10;;;;;;;5.75;72.65;100781.25;112137;251;39049;-57
2023/12/27 11:47:31;;;;;;;6.50;2.00;;;;;;;5.71;72.50;100778.27;112048;251;154093;-56
2023/12/27 11:50:27;;;;;;;5.50;2.10;;;;;;;5.70;72.26;100786.60;111912;252;40314;-56
2023/12/27 11:53:02;;;;;;;9.00;3.00;;;;;;;5.70;72.65;100790.16;112152;252;39816;-58
2023/12/27 11:55:36;;;;;;;7.40;1.80;;;;;;;5.72;72.62;100782.23;111974;250;152757;-58
2023/12/27 11:58:11;;;;;;;8.80;2.30;;;;;;;5.74;72.65;100783.89;112104;252;38866;-57
2023/12/27 12:00:47;;;;;;;6.20;2.30;;;;;;;5.75;72.52;100784.86;111990;252;152648;-57
2023/12/27 12:03:34;;;;;;;7.20;2.20;;;;;;;5.77;72.62;100786.42;112080;252;39840;-58
2023/12/27 12:06:23;;;;;;;8.40;2.10;;;;;;;5.78;72.45;100787.02;112008;249;152971;-59
2023/12/27 12:09:00;;;;;;;6.20;2.80;;;;;;;5.78;72.22;100790.77;112142;251;39089;-58
2023/12/27 12:11:38;;;;;;;8.60;2.90;;;;;;;5.74;72.03;100797.98;112049;250;152841;-56
2023/12/27 12:14:12;;;;;;;8.60;3.00;;;;;;;5.72;71.80;100799.01;112178;251;39374;-58
2023/12/27 12:16:46;;;;;;;9.30;5.30;;;;;;;5.72;71.71;100806.20;112144;251;40315;-58
2023/12/27 12:19:21;;;;;;;10.30;4.10;;;;;;;5.75;72.07;100807.55;112010;250;152539;-58
2023/12/27 12:21:57;;;;;;;8.60;3.10;;;;;;;5.72;71.73;100807.77;112178;251;39447;-56
2023/12/27 12:24:37;;;;;;;8.10;2.70;;;;;;;5.70;71.77;100806.02;112048;249;152885;-57
2023/12/27 12:27:11;;;;;;;10.00;2.90;;;;;;;5.69;71.59;100803.63;112114;250;38982;-58
2023/12/27 12:29:45;;;;;;;9.80;3.00;;;;;;;5.69;71.66;100805.96;112008;249;153320;-57
2023/12/27 12:32:18;;;;;;;5.50;2.20;;;;;;;5.68;71.63;100813.05;112156;250;40003;-57
2023/12/27 12:34:52;;;;;;;8.90;3.00;;;;;;;5.67;71.51;100815.80;112197;250;39637;-55
2023/12/27 12:37:27;;;;;;;7.00;2.00;;;;;;;5.63;71.42;100818.85;111997;249;152747;-56
2023/12/27 12:40:01;;;;;;;9.80;2.90;;;;;;;5.57;71.36;100826.24;112169;250;39714;-57
2023/12/27 12:42:35;;;;;;;6.10;2.30;;;;;;;5.55;71.44;100826.98;112028;252;153648;-57
2023/12/27 12:45:11;;;;;;;6.80;2.80;;;;;;;5.58;71.20;100830.58;112152;250;39978;-56
2023/12/27 12:47:45;;;;;;;11.00;3.30;;;;;;;5.57;71.11;100830.02;112062;249;153043;-56
2023/12/27 12:50:23;;;;;;;8.10;2.60;;;;;;;5.59;71.33;100832.10;112157;250;40819;-58
2023/12/27 12:52:57;;;;;;;6.70;2.40;;;;;;;5.60;71.17;100833.65;112155;250;39854;-58
2023/12/27 12:55:33;;;;;;;7.90;2.40;;;;;;;5.61;71.44;100829.74;112035;248;152783;-58
2023/12/27 12:58:07;;;;;;;8.10;2.00;;;;;;;5.64;71.51;100827.00;112174;250;39642;-58
2023/12/27 13:00:41;;;;;;;10.30;2.50;;;;;;;5.65;71.68;100820.09;111974;249;153779;-56
2023/12/27 13:03:14;;;;;;;6.20;2.30;;;;;;;5.65;71.60;100825.11;112126;250;40624;-56
2023/12/27 13:05:51;;;;;;;10.90;3.10;;;;;;;5.64;71.73;100826.43;111993;248;153077;-58
2023/12/27 13:08:26;;;;;;;6.40;2.70;;;;;;;5.64;71.79;100825.61;112074;250;40312;-59
2023/12/27 13:11:00;;;;;;;8.30;2.20;;;;;;;5.58;71.67;100823.33;112150;250;41130;-58
2023/12/27 13:13:34;;;;;;;8.10;2.40;;;;;;;5.55;71.64;100822.50;112273;246;152596;-58
2023/12/27 13:16:08;;;;;;;7.90;2.50;;;;;;;5.54;71.70;100823.35;112400;247;40056;-58
2023/12/27 13:18:43;;;;;;;7.50;2.10;;;;;;;5.47;71.42;100826.30;112260;246;153785;-58
2023/12/27 13:21:18;;;;;;;6.80;2.50;;;;;;;5.43;71.46;100826.41;112414;247;39274;-55
2023/12/27 13:23:50;;;;;;;;;;;;;;;5.38;71.61;100824.16;112304;246;153683;-56
2023/12/27 13:26:24;;;;;;;8.20;2.60;;;;;;;5.33;71.69;100826.40;112410;247;40163;-58
2023/12/27 13:28:58;;;;;;;7.20;2.40;;;;;;;5.29;71.71;100831.90;112426;247;39487;-58
2023/12/27 13:31:32;;;;;;;7.20;2.30;;;;;;;5.23;71.59;100835.05;112253;246;152936;-56
2023/12/27 13:34:07;;;;;;;5.80;2.20;;;;;;;5.20;71.64;100836.78;112427;247;40325;-57
2023/12/27 13:36:41;;;;;;;8.20;2.30;;;;;;;5.16;71.82;100838.73;112266;246;152631;-56
2023/12/27 13:39:15;;;;;;;11.70;3.10;;;;;;;5.11;71.80;100839.73;112405;247;39927;-56
2023/12/27 13:41:49;;;;;;;9.60;3.20;;;;;;;5.03;72.08;100841.04;112318;246;153179;-56
2023/12/27 13:44:23;;;;;;;9.70;2.10;;;;;;;4.95;72.11;100846.98;112391;247;39324;-57
2023/12/27 13:46:58;;;;;;;7.90;2.20;;;;;;;4.91;72.43;100854.83;112424;247;40018;-56
2023/12/27 13:49:35;;;;;;;6.70;2.00;;;;;;;4.91;72.51;100854.02;112248;246;153512;-55
2023/12/27 13:52:10;;;;;;;6.50;2.60;;;;;;;4.94;72.39;100861.20;112452;247;40358;-55
2023/12/27 13:54:44;;;;;;;7.00;2.50;;;;;;;4.90;72.38;100861.43;112277;246;152754;-56
2023/12/27 13:57:19;;;;;;;4.30;1.90;;;;;;;4.91;72.34;100866.86;112442;247;39533;-56
2023/12/27 13:59:53;;;;;;;8.10;3.20;;;;;;;4.86;72.52;100871.95;112307;246;153168;-57
2023/12/27 14:02:27;;;;;;;6.50;3.10;;;;;;;4.88;72.64;100875.48;112427;247;39739;-57
2023/12/27 14:05:02;;;;;;;7.80;2.90;;;;;;;4.87;72.72;100882.92;112405;247;41283;-56
2023/12/27 14:07:36;;;;;;;7.70;2.20;;;;;;;4.81;72.66;100883.86;112197;247;153527;-56
2023/12/27 14:10:12;;;;;;;8.60;2.90;;;;;;;4.73;72.74;100882.35;112415;247;39754;-57
2023/12/27 14:12:47;;;;;;;8.30;2.90;;;;;;;4.66;72.84;100886.97;112267;246;153084;-57
